createdAt,value
2022-09-04T00:02:23.064Z,980.52
2022-09-04T00:07:54.769Z,980.42
2022-09-04T00:13:26.456Z,980.6
2022-09-04T00:18:58.172Z,980.53
2022-09-04T00:24:29.812Z,980.54
2022-09-04T00:30:06.025Z,980.57
2022-09-04T00:35:40.049Z,980.59
2022-09-04T00:41:09.560Z,980.64
2022-09-04T00:46:41.201Z,980.49
2022-09-04T00:52:12.902Z,980.59
2022-09-04T00:57:44.590Z,980.69
2022-09-04T01:03:16.990Z,980.77
2022-09-04T01:08:48.094Z,980.89
2022-09-04T01:14:19.806Z,980.93
2022-09-04T01:19:51.519Z,980.72
2022-09-04T01:25:23.350Z,980.72
2022-09-04T01:30:59.354Z,980.87
2022-09-04T01:36:31.025Z,980.74
2022-09-04T01:42:02.784Z,980.78
2022-09-04T01:47:34.514Z,980.54
2022-09-04T01:53:06.625Z,980.68
2022-09-04T01:58:38.002Z,980.68
2022-09-04T02:04:09.774Z,980.72
2022-09-04T02:09:41.427Z,980.74
2022-09-04T02:15:13.106Z,980.63
2022-09-04T02:20:45.090Z,980.68
2022-09-04T02:26:16.563Z,980.79
2022-09-04T02:31:54.925Z,980.69
2022-09-04T02:37:26.491Z,980.75
2022-09-04T02:42:58.187Z,980.72
2022-09-04T02:48:29.833Z,980.79
2022-09-04T02:54:01.560Z,980.84
2022-09-04T02:59:33.321Z,980.81
2022-09-04T03:05:05.038Z,980.86
2022-09-04T03:10:36.863Z,980.85
2022-09-04T03:16:08.672Z,980.92
2022-09-04T03:21:40.242Z,980.88
2022-09-04T03:27:12.150Z,980.91
2022-09-04T03:32:48.535Z,980.72
2022-09-04T03:38:19.793Z,980.8
2022-09-04T03:43:51.443Z,980.91
2022-09-04T03:49:23.297Z,980.86
2022-09-04T03:54:54.945Z,980.94
2022-09-04T04:00:26.617Z,981.0
2022-09-04T04:05:58.389Z,981.01
2022-09-04T04:11:30.053Z,980.97
2022-09-04T04:17:04.633Z,981.04
2022-09-04T04:22:33.792Z,981.15
2022-09-04T04:28:07.206Z,981.23
2022-09-04T04:33:42.150Z,981.38
2022-09-04T04:39:13.087Z,981.52
2022-09-04T04:44:44.846Z,981.5
2022-09-04T04:50:16.604Z,981.53
2022-09-04T04:55:48.207Z,981.56
2022-09-04T05:01:20.203Z,981.66
2022-09-04T05:06:51.674Z,981.8
2022-09-04T05:12:23.405Z,981.92
2022-09-04T05:17:55.153Z,981.91
2022-09-04T05:23:29.629Z,982.06
2022-09-04T05:28:58.561Z,982.34
2022-09-04T05:34:34.750Z,982.53
2022-09-04T05:40:06.816Z,982.58
2022-09-04T05:45:38.254Z,982.82
2022-09-04T05:51:09.842Z,983.1
2022-09-04T05:56:41.569Z,983.19
2022-09-04T06:02:13.632Z,983.43
2022-09-04T06:07:45.077Z,983.63
2022-09-04T06:13:16.804Z,983.81
2022-09-04T06:18:48.506Z,983.97
2022-09-04T06:24:20.226Z,984.03
2022-09-04T06:29:51.922Z,984.27
2022-09-04T06:35:28.110Z,984.38
2022-09-04T06:40:59.841Z,984.7
2022-09-04T06:46:31.704Z,984.79
2022-09-04T06:52:03.406Z,985.13
2022-09-04T06:57:34.950Z,984.94
2022-09-04T07:03:06.830Z,984.9
2022-09-04T07:08:38.434Z,985.14
2022-09-04T07:14:10.190Z,985.47
2022-09-04T07:19:41.902Z,985.06
2022-09-04T07:25:13.589Z,985.51
2022-09-04T07:30:45.346Z,985.36
2022-09-04T07:36:21.385Z,985.32
2022-09-04T07:41:53.191Z,985.61
2022-09-04T07:47:24.878Z,985.66
2022-09-04T07:53:07.295Z,985.81
2022-09-04T07:58:28.254Z,985.49
2022-09-04T08:04:00.190Z,985.69
2022-09-04T08:09:31.800Z,985.41
2022-09-04T08:15:03.493Z,986.23
2022-09-04T08:20:42.260Z,985.85
2022-09-04T08:26:13.812Z,985.34
2022-09-04T08:31:45.594Z,985.61
2022-09-04T08:37:21.722Z,985.81
2022-09-04T08:42:53.420Z,986.21
2022-09-04T08:48:25.430Z,985.9
2022-09-04T08:53:56.861Z,985.93
2022-09-04T08:59:30.517Z,985.96
2022-09-04T09:05:00.389Z,985.21
2022-09-04T09:10:31.922Z,984.88
2022-09-04T09:16:03.780Z,985.65
2022-09-04T09:21:35.653Z,984.09
2022-09-04T09:27:07.188Z,984.65
2022-09-04T09:32:38.881Z,985.13
2022-09-04T09:38:15.041Z,984.65
2022-09-04T09:43:46.808Z,985.06
2022-09-04T09:49:18.585Z,984.45
2022-09-04T09:54:50.220Z,984.35
2022-09-04T10:00:22.041Z,984.82
2022-09-04T10:05:53.926Z,984.48
2022-09-04T10:11:25.392Z,984.3
2022-09-04T10:16:57.302Z,984.25
2022-09-04T10:22:28.826Z,983.86
2022-09-04T10:28:00.512Z,984.21
2022-09-04T10:33:32.593Z,983.8
2022-09-04T10:39:08.512Z,984.13
2022-09-04T10:44:40.025Z,984.16
2022-09-04T10:50:11.821Z,984.35
2022-09-04T10:55:43.465Z,983.68
2022-09-04T11:01:15.337Z,983.94
2022-09-04T11:06:46.916Z,983.65
2022-09-04T11:12:18.741Z,984.1
2022-09-04T11:17:50.406Z,984.18
2022-09-04T11:23:22.798Z,983.48
2022-09-04T11:28:53.897Z,983.61
2022-09-04T11:34:25.642Z,983.12
2022-09-04T11:40:01.930Z,982.41
2022-09-04T11:45:33.617Z,982.37
2022-09-04T11:51:05.229Z,982.61
2022-09-04T11:56:37.062Z,982.46
2022-09-04T12:02:08.687Z,981.71
2022-09-04T12:07:44.007Z,981.51
2022-09-04T12:13:16.110Z,981.32
2022-09-04T12:18:43.737Z,982.43
2022-09-04T12:24:15.411Z,982.47
2022-09-04T12:29:47.169Z,982.38
2022-09-04T12:35:18.845Z,982.55
2022-09-04T12:40:55.037Z,982.2
2022-09-04T12:46:26.711Z,982.62
2022-09-04T12:51:58.413Z,982.15
2022-09-04T12:57:30.150Z,982.05
2022-09-04T13:03:01.860Z,982.68
2022-09-04T13:08:33.470Z,981.76
2022-09-04T13:14:05.333Z,981.72
2022-09-04T13:19:37.039Z,982.38
2022-09-04T13:25:08.785Z,982.27
2022-09-04T13:30:40.558Z,982.05
2022-09-04T13:36:12.144Z,981.54
2022-09-04T13:41:48.325Z,981.66
2022-09-04T13:47:33.135Z,981.54
2022-09-04T13:52:51.766Z,981.21
2022-09-04T13:58:23.682Z,981.22
2022-09-04T14:03:55.499Z,981.05
2022-09-04T14:09:26.958Z,981.55
2022-09-04T14:14:58.630Z,981.38
2022-09-04T14:20:30.495Z,980.96
2022-09-04T14:26:02.188Z,980.9
2022-09-04T14:31:35.284Z,980.65
2022-09-04T14:37:05.522Z,980.97
2022-09-04T14:42:41.718Z,980.74
2022-09-04T14:48:13.306Z,980.17
2022-09-04T14:53:45.078Z,980.67
2022-09-04T14:59:17.131Z,980.83
2022-09-04T15:04:48.514Z,980.67
2022-09-04T15:10:20.230Z,979.86
2022-09-04T15:15:52.400Z,980.34
2022-09-04T15:21:23.846Z,980.48
2022-09-04T15:26:55.623Z,980.24
2022-09-04T15:32:27.336Z,980.31
2022-09-04T15:38:02.535Z,979.53
2022-09-04T15:43:35.193Z,980.28
2022-09-04T15:49:06.861Z,980.23
2022-09-04T15:54:38.571Z,980.12
2022-09-04T16:00:10.557Z,979.52
2022-09-04T16:05:42.125Z,980.05
2022-09-04T16:11:13.781Z,979.37
2022-09-04T16:16:45.623Z,979.47
2022-09-04T16:22:17.205Z,978.81
2022-09-04T16:27:48.893Z,979.21
2022-09-04T16:33:28.992Z,978.58
2022-09-04T16:38:52.454Z,978.69
2022-09-04T16:44:28.505Z,978.15
2022-09-04T16:50:00.346Z,978.67
2022-09-04T16:55:31.954Z,978.75
2022-09-04T17:01:15.225Z,978.62
2022-09-04T17:06:35.412Z,978.57
2022-09-04T17:12:07.126Z,978.37
2022-09-04T17:17:39.213Z,978.19
2022-09-04T17:29:38.124Z,978.15
2022-09-04T17:45:21.922Z,977.79
2022-09-04T17:50:53.613Z,977.81
2022-09-04T17:56:25.402Z,977.74
2022-09-04T18:01:57.164Z,977.72
2022-09-04T18:08:11.082Z,977.73
2022-09-04T18:13:00.537Z,977.79
2022-09-04T18:18:32.365Z,977.81
2022-09-04T18:24:03.905Z,977.82
2022-09-04T18:51:47.159Z,978.3
2022-09-04T18:57:18.867Z,978.35
2022-09-04T19:02:54.457Z,978.39
2022-09-04T19:08:22.893Z,978.4
2022-09-04T19:13:53.806Z,978.47
2022-09-04T19:19:32.222Z,978.43
2022-09-04T19:24:57.262Z,978.43
2022-09-04T19:30:29.131Z,978.45
2022-09-04T19:36:00.761Z,978.5
2022-09-04T19:47:29.983Z,978.55
2022-09-04T19:58:11.981Z,978.53
2022-09-04T20:03:43.712Z,978.55
2022-09-04T20:09:15.443Z,978.63
2022-09-04T20:14:47.178Z,978.8
2022-09-04T20:20:18.896Z,978.63
2022-09-04T20:25:50.583Z,978.63
2022-09-04T20:31:37.639Z,978.67
2022-09-04T20:36:54.177Z,978.68
2022-09-04T20:42:25.728Z,978.71
2022-09-04T20:53:33.801Z,978.76
2022-09-04T21:04:44.314Z,978.93
2022-09-04T21:10:10.995Z,978.84
2022-09-04T21:15:40.474Z,979.03
2022-09-04T21:21:12.156Z,979.08
2022-09-04T21:26:44.006Z,979.09
2022-09-04T21:32:15.622Z,979.22
2022-09-04T21:37:47.384Z,979.33
2022-09-04T21:43:19.378Z,979.43
2022-09-04T21:49:08.347Z,979.39
2022-09-04T22:05:32.459Z,979.65
2022-09-04T22:16:36.076Z,980.02
2022-09-04T22:22:07.654Z,980.21
2022-09-04T22:28:10.126Z,980.32
2022-09-04T22:33:11.033Z,980.34
2022-09-04T22:38:42.935Z,980.34
2022-09-04T22:44:14.510Z,980.29
2022-09-04T22:49:57.845Z,980.21
2022-09-04T22:56:25.408Z,980.35
2022-09-04T23:00:56.027Z,980.34
2022-09-04T23:14:08.741Z,980.4
2022-09-04T23:17:31.210Z,980.56
2022-09-04T23:28:35.076Z,980.36
2022-09-04T23:34:06.350Z,980.41
2022-09-04T23:39:38.213Z,980.55
2022-09-04T23:45:09.775Z,980.45
2022-09-04T23:50:45.896Z,980.37
2022-09-04T23:56:17.574Z,980.44
